Time;durP1;ratioP1;P1;durP2;ratioP2;P2;SDS_P1;SDS_P2;PMS_P1;PMS_P2;Temp;Humidity;BMP_temperature;BMP_pressure;BME280_temperature;BME280_humidity;BME280_pressure;Samples;Min_cycle;Max_cycle;Signal;HPM_P1;HPM_P2
2023/05/24 00:02:29;;;;;;;6.00;3.03;;;24.20;76.80;;;;;;10786900;33;20031;-71
2023/05/24 00:08:34;;;;;;;3.72;2.97;;;24.10;76.70;;;;;;10786527;33;20021;-71
2023/05/24 00:14:36;;;;;;;5.65;3.03;;;23.90;76.70;;;;;;10796007;33;20016;-71
2023/05/24 00:20:55;;;;;;;7.37;3.37;;;23.90;76.50;;;;;;10797366;33;20020;-71
2023/05/24 00:26:58;;;;;;;5.82;4.25;;;23.90;76.20;;;;;;10815469;32;20028;-71
2023/05/24 00:33:01;;;;;;;8.35;3.80;;;23.80;76.10;;;;;;10772068;33;20032;-71
2023/05/24 00:39:05;;;;;;;5.37;3.28;;;23.80;75.90;;;;;;10790387;33;20390;-71
2023/05/24 00:45:07;;;;;;;5.78;3.87;;;23.70;76.00;;;;;;10792045;33;20020;-71
2023/05/24 00:51:13;;;;;;;6.80;4.25;;;23.70;75.70;;;;;;10810926;33;20424;-71
2023/05/24 00:58:05;;;;;;;4.07;2.72;;;23.60;75.90;;;;;;10823915;33;20069;-71
2023/05/24 01:04:07;;;;;;;5.07;3.67;;;23.50;76.00;;;;;;10812207;33;20036;-71
2023/05/24 01:10:09;;;;;;;4.80;3.50;;;23.50;75.60;;;;;;10828665;33;20103;-71
2023/05/24 01:16:16;;;;;;;6.05;3.33;;;23.50;75.60;;;;;;10814670;33;20024;-71
2023/05/24 01:22:53;;;;;;;8.63;3.40;;;23.30;75.80;;;;;;10828228;33;20024;-71
2023/05/24 01:28:55;;;;;;;7.28;3.95;;;23.20;75.90;;;;;;10828248;32;20023;-71
2023/05/24 01:34:57;;;;;;;13.45;3.83;;;23.20;76.00;;;;;;10827981;33;20024;-70
2023/05/24 01:41:28;;;;;;;5.95;4.32;;;23.10;76.10;;;;;;10827799;33;20035;-71
2023/05/24 01:47:38;;;;;;;4.18;3.33;;;23.20;75.90;;;;;;10867354;32;20371;-71
2023/05/24 01:53:46;;;;;;;6.28;3.92;;;23.10;76.60;;;;;;10866632;32;20042;-71
2023/05/24 01:59:49;;;;;;;10.60;5.00;;;23.10;76.60;;;;;;10866983;32;20042;-71
2023/05/24 02:05:51;;;;;;;6.25;4.40;;;23.10;77.00;;;;;;10866723;32;20023;-71
2023/05/24 02:11:53;;;;;;;6.32;4.43;;;23.10;76.90;;;;;;10865235;32;20063;-71
2023/05/24 02:17:56;;;;;;;5.57;3.45;;;23.00;76.80;;;;;;10866097;32;20390;-71
2023/05/24 02:23:57;;;;;;;7.05;4.40;;;22.90;76.60;;;;;;10838166;32;20059;-70
2023/05/24 02:29:59;;;;;;;6.70;3.70;;;22.90;76.50;;;;;;10826290;33;20051;-71
2023/05/24 02:36:02;;;;;;;6.05;3.85;;;22.90;77.00;;;;;;10822440;33;20032;-72
2023/05/24 02:42:04;;;;;;;6.55;4.00;;;22.80;77.40;;;;;;10826112;33;20051;-71
2023/05/24 02:48:06;;;;;;;5.75;3.35;;;22.80;77.50;;;;;;10823806;33;20338;-71
2023/05/24 02:54:08;;;;;;;7.47;4.28;;;22.80;77.40;;;;;;10812392;33;20043;-71
2023/05/24 03:00:11;;;;;;;5.28;3.75;;;22.70;77.50;;;;;;10825564;33;20020;-72
2023/05/24 03:06:14;;;;;;;7.78;4.70;;;22.80;77.70;;;;;;10825419;33;20077;-72
2023/05/24 03:12:16;;;;;;;6.87;4.32;;;22.70;77.90;;;;;;10825129;33;20023;-72
2023/05/24 03:18:18;;;;;;;6.55;4.37;;;22.60;78.10;;;;;;10825070;33;20016;-72
2023/05/24 03:24:20;;;;;;;6.05;3.83;;;22.50;78.10;;;;;;10822972;32;20032;-72
2023/05/24 03:30:23;;;;;;;10.40;4.32;;;22.60;78.10;;;;;;10823792;33;20078;-71
2023/05/24 03:36:26;;;;;;;4.40;3.03;;;22.60;78.00;;;;;;10824493;33;20032;-72
2023/05/24 03:42:29;;;;;;;6.22;3.67;;;22.60;77.90;;;;;;10824277;33;20051;-71
2023/05/24 03:48:31;;;;;;;6.60;3.90;;;22.60;77.60;;;;;;10824234;33;20047;-72
2023/05/24 03:54:33;;;;;;;5.30;3.55;;;22.60;77.60;;;;;;10824090;33;20047;-72
2023/05/24 04:00:35;;;;;;;8.57;3.65;;;22.60;77.50;;;;;;10823888;33;20034;-72
2023/05/24 04:06:40;;;;;;;5.93;3.90;;;22.60;77.60;;;;;;10823830;33;20016;-71
2023/05/24 04:12:43;;;;;;;5.45;3.20;;;22.60;77.60;;;;;;10823552;33;20012;-71
2023/05/24 04:18:45;;;;;;;5.00;3.37;;;22.60;77.60;;;;;;10823578;33;20046;-71
2023/05/24 04:24:48;;;;;;;6.32;3.10;;;22.60;77.70;;;;;;10809897;32;20036;-72
2023/05/24 04:30:50;;;;;;;7.72;3.55;;;22.50;77.80;;;;;;10820177;33;20031;-72
2023/05/24 04:36:53;;;;;;;7.40;3.80;;;22.60;78.10;;;;;;10825183;32;20016;-72
2023/05/24 04:42:55;;;;;;;4.50;2.95;;;22.60;78.30;;;;;;10829467;33;20028;-71
2023/05/24 04:48:57;;;;;;;6.47;3.50;;;22.60;79.00;;;;;;10829186;33;20054;-73
2023/05/24 04:54:59;;;;;;;4.07;2.83;;;22.60;79.40;;;;;;10829050;33;20054;-72
2023/05/24 05:01:01;;;;;;;6.45;3.72;;;22.60;79.60;;;;;;10828988;33;20382;-73
2023/05/24 05:07:03;;;;;;;3.55;2.72;;;22.60;79.80;;;;;;10830066;33;20048;-72
2023/05/24 05:13:06;;;;;;;4.70;3.45;;;22.70;79.90;;;;;;10829905;33;20058;-72
2023/05/24 05:19:08;;;;;;;11.77;4.10;;;22.70;79.90;;;;;;10829723;33;20039;-72
2023/05/24 05:25:10;;;;;;;5.30;3.08;;;22.70;79.90;;;;;;10828894;32;20074;-73
2023/05/24 05:31:12;;;;;;;7.05;4.68;;;22.60;79.60;;;;;;10829078;33;20023;-73
2023/05/24 05:37:14;;;;;;;7.03;4.28;;;22.70;80.00;;;;;;10828330;33;20047;-70
2023/05/24 05:43:16;;;;;;;10.27;5.45;;;22.60;79.90;;;;;;10829067;33;20390;-73
2023/05/24 05:49:19;;;;;;;8.20;5.57;;;22.70;79.80;;;;;;10813873;32;20024;-73
2023/05/24 05:55:21;;;;;;;6.15;4.28;;;22.80;79.80;;;;;;10827991;33;20031;-72
2023/05/24 06:01:23;;;;;;;5.80;3.70;;;22.80;79.60;;;;;;10826249;33;20052;-72
2023/05/24 06:07:25;;;;;;;6.53;4.28;;;23.00;79.60;;;;;;10790539;33;20029;-73
2023/05/24 06:13:27;;;;;;;10.88;5.30;;;23.10;79.30;;;;;;10790420;33;20410;-73
2023/05/24 06:19:31;;;;;;;8.13;4.60;;;23.20;79.10;;;;;;10777739;33;20040;-72
2023/05/24 06:25:33;;;;;;;5.20;3.47;;;23.10;79.40;;;;;;10825394;33;20441;-72
2023/05/24 06:31:36;;;;;;;9.88;5.68;;;23.20;79.60;;;;;;10826901;33;20028;-70
2023/05/24 06:37:38;;;;;;;7.75;4.40;;;23.30;79.30;;;;;;10827874;33;20020;-71
2023/05/24 06:43:40;;;;;;;7.03;5.10;;;23.40;79.10;;;;;;10825447;33;20365;-72
2023/05/24 06:49:42;;;;;;;9.60;5.20;;;23.40;78.50;;;;;;10778064;33;20096;-71
2023/05/24 06:55:44;;;;;;;9.95;7.45;;;23.30;78.60;;;;;;10789004;33;20047;-72
2023/05/24 07:01:50;;;;;;;10.73;7.35;;;23.40;78.10;;;;;;10787330;33;20043;-72
2023/05/24 07:07:52;;;;;;;7.75;5.97;;;23.50;78.00;;;;;;10788393;33;20384;-72
2023/05/24 07:13:54;;;;;;;13.62;5.37;;;23.60;77.70;;;;;;10786994;33;20060;-70
2023/05/24 07:19:56;;;;;;;7.78;4.53;;;23.70;77.70;;;;;;10774698;33;20059;-72
2023/05/24 07:29:25;;;;;;;7.50;4.25;;;23.80;77.50;;;;;;10866189;32;7069890;-72
2023/05/24 07:35:28;;;;;;;8.85;5.68;;;24.00;78.10;;;;;;11051742;32;20014;-72
2023/05/24 07:41:32;;;;;;;10.63;7.35;;;24.10;77.30;;;;;;11037884;32;20389;-72
2023/05/24 07:47:34;;;;;;;13.73;5.37;;;24.20;76.50;;;;;;11049986;32;20053;-72
2023/05/24 07:53:37;;;;;;;12.93;7.82;;;24.30;76.00;;;;;;11048201;32;20318;-71
2023/05/24 07:59:39;;;;;;;9.48;7.05;;;24.50;75.40;;;;;;11050858;32;20289;-71
2023/05/24 08:05:41;;;;;;;11.57;8.95;;;24.40;75.50;;;;;;11046919;32;20030;-72
2023/05/24 08:11:43;;;;;;;11.98;9.10;;;24.50;75.80;;;;;;11049968;32;20068;-72
2023/05/24 08:17:47;;;;;;;13.40;9.15;;;24.40;77.00;;;;;;11047881;32;20302;-73
2023/05/24 08:23:49;;;;;;;14.10;10.82;;;24.50;77.70;;;;;;11048435;32;20029;-71
2023/05/24 08:29:52;;;;;;;12.18;9.32;;;24.50;76.70;;;;;;11048831;32;20340;-73
2023/05/24 08:35:54;;;;;;;8.90;6.12;;;24.60;77.60;;;;;;11027632;32;20088;-71
2023/05/24 08:41:58;;;;;;;10.60;9.38;;;24.70;76.40;;;;;;11022197;32;20031;-73
2023/05/24 08:48:01;;;;;;;10.40;8.60;;;24.90;76.80;;;;;;10996517;32;20392;-73
2023/05/24 08:54:06;;;;;;;9.18;6.72;;;24.90;76.80;;;;;;10970525;32;20023;-74
2023/05/24 09:00:11;;;;;;;6.03;5.05;;;25.00;76.30;;;;;;10985219;32;20427;-73
2023/05/24 09:06:16;;;;;;;9.70;5.90;;;25.00;77.00;;;;;;10967935;32;20061;-72
2023/05/24 09:12:20;;;;;;;10.77;5.78;;;25.20;75.80;;;;;;10983834;32;20019;-72
2023/05/24 09:18:22;;;;;;;7.78;5.53;;;25.30;74.80;;;;;;10983838;32;20018;-71
2023/05/24 09:24:24;;;;;;;35.78;8.20;;;25.40;74.60;;;;;;10984131;32;20088;-73
2023/05/24 09:30:26;;;;;;;13.10;5.62;;;25.50;75.00;;;;;;10982892;32;20443;-72
2023/05/24 09:36:31;;;;;;;14.70;6.28;;;25.40;74.90;;;;;;10983820;32;20019;-73
2023/05/24 09:42:33;;;;;;;9.38;5.18;;;25.50;73.70;;;;;;10982982;32;20049;-73
2023/05/24 09:48:35;;;;;;;5.82;4.18;;;25.60;75.00;;;;;;10967456;32;20341;-72
2023/05/24 09:54:39;;;;;;;7.20;5.10;;;25.70;72.90;;;;;;10969746;32;20023;-73
2023/05/24 10:00:41;;;;;;;6.05;4.40;;;25.90;72.30;;;;;;10968854;32;20037;-72
2023/05/24 10:06:46;;;;;;;11.38;5.45;;;26.00;71.10;;;;;;10982439;32;20030;-71
2023/05/24 10:12:50;;;;;;;8.25;4.05;;;26.10;70.90;;;;;;10979941;32;20052;-73
2023/05/24 10:18:53;;;;;;;8.55;4.75;;;26.30;71.20;;;;;;10982079;32;20427;-74
2023/05/24 10:24:58;;;;;;;9.38;5.93;;;26.30;70.60;;;;;;10981086;32;20145;-72
2023/05/24 10:31:02;;;;;;;7.68;5.10;;;26.50;70.70;;;;;;10981874;32;20345;-73
2023/05/24 10:37:04;;;;;;;6.60;3.85;;;26.60;71.70;;;;;;10963075;32;20205;-72
2023/05/24 10:43:07;;;;;;;6.97;4.45;;;26.70;70.10;;;;;;10981528;32;20023;-72
2023/05/24 10:49:13;;;;;;;4.65;3.42;;;27.00;68.10;;;;;;10978057;32;20056;-73
2023/05/24 10:55:18;;;;;;;7.93;4.90;;;27.20;68.10;;;;;;10968027;32;20046;-74
2023/05/24 11:01:32;;;;;;;6.97;4.15;;;27.40;68.50;;;;;;10976951;32;20046;-71
2023/05/24 11:07:41;;;;;;;8.77;5.50;;;27.10;69.10;;;;;;10986764;32;20034;-72
2023/05/24 11:13:46;;;;;;;5.37;3.83;;;27.00;68.40;;;;;;11007766;32;20022;-73
2023/05/24 11:19:53;;;;;;;7.35;4.43;;;27.20;69.50;;;;;;11004340;32;20023;-73
2023/05/24 11:25:56;;;;;;;6.18;4.75;;;27.70;66.90;;;;;;11017663;32;20347;-72
2023/05/24 11:32:03;;;;;;;5.70;4.25;;;27.70;67.40;;;;;;11018313;32;20041;-74
2023/05/24 11:38:13;;;;;;;6.60;4.40;;;27.60;66.70;;;;;;11001245;32;20056;-73
2023/05/24 11:44:20;;;;;;;6.57;4.87;;;27.30;66.60;;;;;;11017752;32;20062;-73
2023/05/24 11:50:25;;;;;;;7.77;5.07;;;27.10;67.10;;;;;;11018405;32;20422;-74
2023/05/24 11:56:31;;;;;;;12.25;3.83;;;27.30;65.20;;;;;;11002772;32;20034;-73
2023/05/24 12:02:33;;;;;;;7.95;5.60;;;27.60;65.30;;;;;;11003531;32;20022;-73
2023/05/24 12:08:35;;;;;;;5.47;3.85;;;28.00;67.30;;;;;;11015393;32;20091;-72
2023/05/24 12:14:38;;;;;;;5.80;4.03;;;27.90;65.30;;;;;;11022004;32;20045;-73
2023/05/24 12:20:41;;;;;;;5.15;3.67;;;27.90;65.40;;;;;;11023094;32;20044;-73
2023/05/24 12:26:45;;;;;;;5.75;4.03;;;27.80;64.40;;;;;;11006794;32;20037;-74
2023/05/24 12:32:48;;;;;;;6.82;3.90;;;27.90;63.50;;;;;;11024863;32;20007;-73
2023/05/24 12:38:50;;;;;;;6.07;4.12;;;28.20;63.60;;;;;;11009788;32;20014;-73
2023/05/24 12:44:53;;;;;;;6.10;4.00;;;28.30;63.30;;;;;;11023653;32;20034;-70
2023/05/24 12:50:55;;;;;;;8.60;3.47;;;28.30;62.50;;;;;;10994468;32;20088;-74
2023/05/24 12:57:01;;;;;;;5.45;3.70;;;28.40;61.90;;;;;;11021845;32;20018;-74
2023/05/24 13:03:04;;;;;;;8.83;4.00;;;28.60;61.10;;;;;;11004919;32;20027;-74
2023/05/24 13:09:07;;;;;;;5.50;3.37;;;28.60;61.90;;;;;;10987701;32;20404;-74
2023/05/24 13:15:10;;;;;;;5.62;4.22;;;28.30;63.10;;;;;;10983207;32;20413;-74
2023/05/24 13:21:12;;;;;;;5.18;3.42;;;28.20;65.10;;;;;;10982114;32;20411;-74
2023/05/24 13:27:14;;;;;;;7.35;3.47;;;28.30;63.20;;;;;;10977729;32;20034;-74
2023/05/24 13:33:16;;;;;;;4.55;3.20;;;28.50;61.90;;;;;;11006651;32;20423;-73
2023/05/24 13:39:22;;;;;;;8.73;3.87;;;28.30;63.60;;;;;;11007673;32;20018;-74
2023/05/24 13:45:24;;;;;;;6.75;3.90;;;28.40;62.20;;;;;;11002274;32;20042;-71
2023/05/24 13:51:27;;;;;;;4.78;3.45;;;28.40;61.20;;;;;;10989566;32;20034;-73
2023/05/24 13:57:30;;;;;;;7.50;3.83;;;28.30;62.10;;;;;;10981646;32;20019;-73
2023/05/24 14:03:33;;;;;;;4.68;3.35;;;28.20;64.00;;;;;;10989410;32;20034;-73
2023/05/24 14:09:35;;;;;;;8.02;3.30;;;28.10;63.00;;;;;;11017677;32;20443;-72
2023/05/24 14:15:37;;;;;;;9.43;4.80;;;28.20;63.10;;;;;;11018982;32;20049;-73
2023/05/24 14:21:40;;;;;;;10.43;4.32;;;28.30;62.40;;;;;;10986703;32;20065;-73
2023/05/24 14:27:43;;;;;;;4.15;2.92;;;28.30;61.30;;;;;;10977843;32;20049;-73
2023/05/24 14:33:45;;;;;;;4.53;3.05;;;28.30;60.80;;;;;;10979663;32;20042;-73
2023/05/24 14:39:47;;;;;;;5.80;3.65;;;28.50;60.40;;;;;;10984514;32;20458;-72
2023/05/24 14:45:49;;;;;;;6.95;4.07;;;28.60;59.50;;;;;;10979794;32;20026;-73
2023/05/24 14:51:51;;;;;;;6.00;3.70;;;28.60;58.50;;;;;;10975797;32;20045;-74
2023/05/24 14:57:53;;;;;;;7.60;3.75;;;28.50;60.10;;;;;;10979653;32;20022;-72
2023/05/24 15:03:55;;;;;;;7.87;4.62;;;28.30;60.30;;;;;;10966039;32;20041;-74
2023/05/24 15:09:57;;;;;;;8.32;4.18;;;28.30;61.30;;;;;;10978860;32;20026;-73
2023/05/24 15:15:59;;;;;;;4.97;3.50;;;28.30;63.70;;;;;;10964536;32;20065;-73
2023/05/24 15:22:03;;;;;;;8.77;4.03;;;28.30;62.40;;;;;;10978813;32;20019;-74
2023/05/24 15:28:06;;;;;;;5.22;3.80;;;28.30;60.60;;;;;;10823478;27;20036;-73
2023/05/24 15:34:08;;;;;;;5.80;4.47;;;28.30;59.70;;;;;;10783378;33;20398;-73
2023/05/24 15:40:11;;;;;;;6.55;4.18;;;28.40;60.00;;;;;;10773798;33;20316;-73
2023/05/24 15:46:13;;;;;;;7.22;3.92;;;28.40;60.70;;;;;;10787862;33;20047;-73
2023/05/24 15:52:15;;;;;;;5.20;3.53;;;28.30;60.80;;;;;;10787791;33;20067;-73
2023/05/24 15:58:17;;;;;;;5.62;3.80;;;28.30;60.70;;;;;;10793178;33;20047;-74
2023/05/24 16:04:20;;;;;;;6.82;3.58;;;28.30;61.10;;;;;;10793003;33;20300;-74
2023/05/24 16:10:22;;;;;;;6.50;4.05;;;28.20;60.20;;;;;;10779341;33;20071;-73
2023/05/24 16:16:25;;;;;;;7.22;3.80;;;28.30;60.20;;;;;;10792502;33;20047;-73
2023/05/24 16:22:28;;;;;;;7.20;3.83;;;28.30;59.80;;;;;;10791164;33;20032;-73
2023/05/24 16:28:30;;;;;;;4.85;3.37;;;28.10;62.00;;;;;;10788871;33;20024;-73
2023/05/24 16:34:33;;;;;;;6.00;3.65;;;27.80;62.50;;;;;;10790633;33;20418;-72
2023/05/24 16:40:35;;;;;;;4.28;3.00;;;27.70;62.80;;;;;;10778846;33;20071;-72
2023/05/24 16:46:38;;;;;;;5.50;3.03;;;27.50;62.60;;;;;;10791784;33;20410;-72
2023/05/24 16:52:44;;;;;;;3.30;2.50;;;27.40;62.90;;;;;;10791765;33;20353;-73
2023/05/24 16:58:47;;;;;;;6.00;3.58;;;27.30;63.10;;;;;;10790986;33;20422;-73
2023/05/24 17:04:49;;;;;;;8.82;3.00;;;27.30;63.50;;;;;;10790118;33;20334;-74
2023/05/24 17:10:54;;;;;;;6.25;3.42;;;27.30;62.60;;;;;;10791393;33;20444;-74
2023/05/24 17:16:58;;;;;;;7.30;4.22;;;27.30;62.30;;;;;;10787906;33;20012;-73
2023/05/24 17:23:00;;;;;;;5.18;3.72;;;27.10;62.30;;;;;;10790926;33;20339;-74
2023/05/24 17:29:03;;;;;;;5.25;3.42;;;27.00;63.00;;;;;;10790449;33;20028;-74
2023/05/24 17:35:05;;;;;;;5.12;3.20;;;26.90;63.80;;;;;;10788145;33;20326;-73
2023/05/24 17:41:14;;;;;;;3.78;2.70;;;26.80;64.20;;;;;;10790986;33;20020;-73
2023/05/24 17:47:16;;;;;;;5.93;2.70;;;26.80;64.80;;;;;;10790051;33;20025;-75
2023/05/24 17:53:19;;;;;;;4.65;2.60;;;26.70;64.90;;;;;;10789619;33;20021;-72
2023/05/24 17:59:22;;;;;;;3.30;2.37;;;26.60;65.50;;;;;;10788559;33;20055;-72
2023/05/24 18:05:24;;;;;;;4.50;2.65;;;26.50;66.00;;;;;;10789151;33;20051;-71
2023/05/24 18:11:27;;;;;;;3.50;2.67;;;26.40;66.40;;;;;;10788051;33;20359;-71
2023/05/24 18:17:29;;;;;;;2.67;1.95;;;26.40;66.70;;;;;;10790726;33;20024;-71
2023/05/24 18:23:38;;;;;;;4.90;2.23;;;26.30;67.00;;;;;;10789379;33;20323;-72
2023/05/24 18:29:41;;;;;;;2.92;2.05;;;26.30;67.30;;;;;;10785793;33;20125;-72
2023/05/24 18:35:43;;;;;;;5.75;2.15;;;26.10;67.60;;;;;;10789761;33;20028;-71
2023/05/24 18:41:46;;;;;;;5.90;3.10;;;26.10;68.10;;;;;;10788519;33;20438;-72
2023/05/24 18:47:49;;;;;;;4.90;2.67;;;26.00;68.10;;;;;;10788078;33;20058;-72
2023/05/24 18:53:52;;;;;;;3.03;1.90;;;25.80;68.20;;;;;;10786946;33;20047;-72
2023/05/24 18:59:56;;;;;;;3.40;2.10;;;25.80;68.50;;;;;;10787343;33;20025;-72
2023/05/24 19:05:58;;;;;;;4.57;2.62;;;25.80;68.70;;;;;;10787825;33;20303;-71
2023/05/24 19:12:03;;;;;;;6.87;2.28;;;25.60;69.00;;;;;;10787712;33;20028;-71
2023/05/24 19:18:08;;;;;;;3.58;2.53;;;25.60;69.30;;;;;;10786396;33;20032;-71
2023/05/24 19:24:12;;;;;;;4.53;2.40;;;25.50;69.70;;;;;;10787111;33;20032;-70
2023/05/24 19:30:19;;;;;;;5.50;2.60;;;25.40;70.00;;;;;;10787293;33;20055;-70
2023/05/24 19:36:31;;;;;;;4.15;2.58;;;25.40;70.20;;;;;;10783279;33;20032;-70
2023/05/24 19:42:36;;;;;;;4.55;2.87;;;25.30;70.60;;;;;;10786926;33;20024;-70
2023/05/24 19:48:38;;;;;;;8.13;3.42;;;25.20;70.90;;;;;;10785929;33;20020;-70
2023/05/24 19:54:41;;;;;;;4.00;2.67;;;25.10;71.20;;;;;;10785804;33;20024;-71
2023/05/24 20:00:43;;;;;;;4.65;2.70;;;25.00;71.40;;;;;;10784922;33;20047;-70
2023/05/24 20:06:47;;;;;;;4.78;2.67;;;25.00;71.50;;;;;;10786407;33;20064;-70
2023/05/24 20:12:51;;;;;;;4.65;2.75;;;24.90;71.70;;;;;;10785525;33;20021;-70
2023/05/24 20:18:54;;;;;;;4.10;3.15;;;24.80;71.90;;;;;;10786114;33;20020;-70
2023/05/24 20:24:59;;;;;;;6.03;3.92;;;24.80;72.30;;;;;;10786586;33;20036;-71
2023/05/24 20:31:03;;;;;;;7.35;3.85;;;24.70;72.50;;;;;;10784155;33;20055;-71
2023/05/24 20:37:10;;;;;;;6.00;3.55;;;24.80;73.30;;;;;;10791954;33;20028;-72
2023/05/24 20:43:16;;;;;;;6.32;3.80;;;24.70;74.20;;;;;;10792062;33;20016;-71
2023/05/24 20:49:19;;;;;;;11.63;5.30;;;24.70;74.60;;;;;;10791634;33;20417;-71
2023/05/24 20:55:21;;;;;;;10.32;5.97;;;24.70;74.30;;;;;;10791648;33;20331;-71
2023/05/24 21:01:48;;;;;;;5.93;3.35;;;24.70;74.20;;;;;;10788938;33;20028;-71
2023/05/24 21:07:58;;;;;;;7.53;5.37;;;24.60;74.20;;;;;;10792617;33;20043;-73
2023/05/24 21:14:04;;;;;;;6.37;4.37;;;24.50;74.60;;;;;;10778095;33;20067;-72
2023/05/24 21:20:08;;;;;;;5.15;3.70;;;24.40;75.00;;;;;;10791405;33;20323;-71
2023/05/24 21:26:13;;;;;;;5.35;3.65;;;24.40;75.30;;;;;;10789492;33;20067;-71
2023/05/24 21:32:17;;;;;;;6.15;3.25;;;24.40;75.80;;;;;;10791814;33;20326;-71
2023/05/24 21:38:22;;;;;;;5.25;4.05;;;24.40;76.40;;;;;;10791279;33;20047;-71
2023/05/24 21:44:24;;;;;;;4.93;2.97;;;24.30;76.70;;;;;;10791495;33;20039;-71
2023/05/24 21:50:27;;;;;;;7.25;4.60;;;24.30;76.50;;;;;;10791196;33;20395;-73
2023/05/24 21:56:29;;;;;;;6.25;3.62;;;24.30;76.70;;;;;;10791284;33;20021;-71
2023/05/24 22:02:32;;;;;;;5.57;3.80;;;24.20;76.80;;;;;;10790922;33;20028;-73
2023/05/24 22:08:34;;;;;;;4.95;3.35;;;24.20;77.00;;;;;;10790744;33;20020;-73
2023/05/24 22:14:37;;;;;;;5.00;2.92;;;24.10;77.40;;;;;;10789170;33;20056;-71
2023/05/24 22:20:40;;;;;;;5.32;3.67;;;24.10;77.50;;;;;;10787944;33;20059;-73
2023/05/24 22:26:45;;;;;;;4.60;3.10;;;24.20;77.50;;;;;;10789563;33;20395;-71
2023/05/24 22:32:47;;;;;;;5.18;3.40;;;24.20;77.40;;;;;;10790173;33;20035;-71
2023/05/24 22:38:49;;;;;;;4.53;3.03;;;24.20;77.50;;;;;;10788726;33;20016;-72
2023/05/24 22:44:52;;;;;;;4.80;3.10;;;24.30;77.30;;;;;;10786459;33;20016;-71
2023/05/24 22:50:55;;;;;;;5.60;3.70;;;24.20;77.20;;;;;;10788459;33;20021;-73
2023/05/24 22:56:58;;;;;;;5.00;3.12;;;24.20;77.20;;;;;;10788391;33;20043;-73
2023/05/24 23:03:01;;;;;;;3.67;2.42;;;24.10;77.80;;;;;;10787550;33;20028;-72
2023/05/24 23:09:03;;;;;;;4.53;2.92;;;24.00;78.10;;;;;;10787948;33;20025;-74
2023/05/24 23:15:06;;;;;;;4.93;2.75;;;24.00;78.20;;;;;;10788874;33;20047;-71
2023/05/24 23:21:13;;;;;;;4.90;2.72;;;24.10;78.10;;;;;;10787210;33;20020;-72
2023/05/24 23:27:15;;;;;;;3.45;2.22;;;24.10;77.90;;;;;;10887926;27;20329;-71
2023/05/24 23:33:17;;;;;;;4.35;3.25;;;24.20;77.50;;;;;;10938358;32;20027;-71
2023/05/24 23:39:19;;;;;;;4.93;2.97;;;24.10;77.50;;;;;;10941017;32;20041;-73
2023/05/24 23:45:21;;;;;;;4.72;2.78;;;23.90;77.50;;;;;;10939428;32;20053;-73
2023/05/24 23:51:23;;;;;;;3.67;2.60;;;23.90;77.50;;;;;;10941195;32;20023;-72
2023/05/24 23:57:25;;;;;;;5.43;3.45;;;23.80;77.50;;;;;;10942319;32;20019;-72
